sensor_id;sensor_type;location;lat;lon;timestamp;P1;durP1;ratioP1;P2;durP2;ratioP2
4132;SDS011;2080;51.038;7.008;2022-12-20T00:00:59;375.30;;;163.63;;
4132;SDS011;2080;51.038;7.008;2022-12-20T00:03:26;366.13;;;130.30;;
4132;SDS011;2080;51.038;7.008;2022-12-20T00:05:51;363.87;;;127.80;;
4132;SDS011;2080;51.038;7.008;2022-12-20T00:08:17;375.73;;;150.33;;
4132;SDS011;2080;51.038;7.008;2022-12-20T00:10:44;363.50;;;130.97;;
4132;SDS011;2080;51.038;7.008;2022-12-20T00:13:10;375.60;;;152.10;;
4132;SDS011;2080;51.038;7.008;2022-12-20T00:15:38;360.67;;;124.43;;
4132;SDS011;2080;51.038;7.008;2022-12-20T00:18:03;380.40;;;161.10;;
4132;SDS011;2080;51.038;7.008;2022-12-20T00:20:28;375.30;;;132.90;;
4132;SDS011;2080;51.038;7.008;2022-12-20T00:22:54;383.37;;;146.80;;
4132;SDS011;2080;51.038;7.008;2022-12-20T00:25:19;387.47;;;170.97;;
4132;SDS011;2080;51.038;7.008;2022-12-20T00:27:45;373.27;;;156.70;;
4132;SDS011;2080;51.038;7.008;2022-12-20T00:30:10;366.17;;;137.83;;
4132;SDS011;2080;51.038;7.008;2022-12-20T00:32:35;381.33;;;165.37;;
4132;SDS011;2080;51.038;7.008;2022-12-20T00:35:01;372.77;;;149.27;;
4132;SDS011;2080;51.038;7.008;2022-12-20T00:37:26;371.53;;;140.53;;
4132;SDS011;2080;51.038;7.008;2022-12-20T00:39:54;368.83;;;157.53;;
4132;SDS011;2080;51.038;7.008;2022-12-20T00:42:21;370.93;;;169.40;;
4132;SDS011;2080;51.038;7.008;2022-12-20T00:44:47;391.47;;;178.93;;
4132;SDS011;2080;51.038;7.008;2022-12-20T00:47:12;367.93;;;141.80;;
4132;SDS011;2080;51.038;7.008;2022-12-20T00:49:40;382.93;;;163.37;;
4132;SDS011;2080;51.038;7.008;2022-12-20T00:52:05;410.60;;;226.17;;
4132;SDS011;2080;51.038;7.008;2022-12-20T00:54:33;371.63;;;144.63;;
4132;SDS011;2080;51.038;7.008;2022-12-20T00:56:58;352.60;;;145.90;;
4132;SDS011;2080;51.038;7.008;2022-12-20T00:59:26;366.80;;;140.63;;
4132;SDS011;2080;51.038;7.008;2022-12-20T01:01:51;355.47;;;148.63;;
4132;SDS011;2080;51.038;7.008;2022-12-20T01:04:19;346.13;;;133.27;;
4132;SDS011;2080;51.038;7.008;2022-12-20T01:06:44;352.90;;;144.33;;
4132;SDS011;2080;51.038;7.008;2022-12-20T01:09:09;354.20;;;146.60;;
4132;SDS011;2080;51.038;7.008;2022-12-20T01:11:35;350.17;;;134.47;;
4132;SDS011;2080;51.038;7.008;2022-12-20T01:14:03;350.83;;;141.07;;
4132;SDS011;2080;51.038;7.008;2022-12-20T01:16:33;380.87;;;156.80;;
4132;SDS011;2080;51.038;7.008;2022-12-20T01:18:58;344.77;;;129.13;;
4132;SDS011;2080;51.038;7.008;2022-12-20T01:21:24;372.90;;;141.40;;
4132;SDS011;2080;51.038;7.008;2022-12-20T01:23:50;378.87;;;138.63;;
4132;SDS011;2080;51.038;7.008;2022-12-20T01:26:18;365.70;;;128.40;;
4132;SDS011;2080;51.038;7.008;2022-12-20T01:28:45;373.20;;;143.33;;
4132;SDS011;2080;51.038;7.008;2022-12-20T01:31:12;380.57;;;143.20;;
4132;SDS011;2080;51.038;7.008;2022-12-20T01:33:37;379.60;;;159.90;;
4132;SDS011;2080;51.038;7.008;2022-12-20T01:36:04;387.67;;;168.83;;
4132;SDS011;2080;51.038;7.008;2022-12-20T01:38:33;387.83;;;175.93;;
4132;SDS011;2080;51.038;7.008;2022-12-20T01:40:58;412.60;;;226.33;;
4132;SDS011;2080;51.038;7.008;2022-12-20T01:43:24;416.53;;;236.47;;
4132;SDS011;2080;51.038;7.008;2022-12-20T01:45:50;380.23;;;162.20;;
4132;SDS011;2080;51.038;7.008;2022-12-20T01:48:19;373.37;;;158.70;;
4132;SDS011;2080;51.038;7.008;2022-12-20T01:50:46;415.33;;;244.13;;
4132;SDS011;2080;51.038;7.008;2022-12-20T01:53:12;391.90;;;178.27;;
4132;SDS011;2080;51.038;7.008;2022-12-20T01:55:38;419.23;;;261.10;;
4132;SDS011;2080;51.038;7.008;2022-12-20T01:58:12;417.37;;;249.43;;
4132;SDS011;2080;51.038;7.008;2022-12-20T02:00:38;378.97;;;176.20;;
4132;SDS011;2080;51.038;7.008;2022-12-20T02:03:05;391.03;;;184.43;;
4132;SDS011;2080;51.038;7.008;2022-12-20T02:05:38;398.57;;;186.23;;
4132;SDS011;2080;51.038;7.008;2022-12-20T02:08:03;414.53;;;229.13;;
4132;SDS011;2080;51.038;7.008;2022-12-20T02:10:41;407.07;;;227.87;;
4132;SDS011;2080;51.038;7.008;2022-12-20T02:13:15;402.47;;;216.43;;
4132;SDS011;2080;51.038;7.008;2022-12-20T02:15:48;429.47;;;264.33;;
4132;SDS011;2080;51.038;7.008;2022-12-20T02:18:28;391.30;;;198.67;;
4132;SDS011;2080;51.038;7.008;2022-12-20T02:31:13;382.27;;;205.53;;
4132;SDS011;2080;51.038;7.008;2022-12-20T02:33:42;398.30;;;187.20;;
4132;SDS011;2080;51.038;7.008;2022-12-20T02:36:16;379.67;;;186.90;;
4132;SDS011;2080;51.038;7.008;2022-12-20T02:38:42;375.00;;;175.90;;
4132;SDS011;2080;51.038;7.008;2022-12-20T02:43:39;393.47;;;165.63;;
4132;SDS011;2080;51.038;7.008;2022-12-20T02:46:24;392.63;;;180.37;;
4132;SDS011;2080;51.038;7.008;2022-12-20T02:48:50;397.97;;;175.20;;
4132;SDS011;2080;51.038;7.008;2022-12-20T02:51:19;380.93;;;199.27;;
4132;SDS011;2080;51.038;7.008;2022-12-20T02:53:45;373.87;;;183.00;;
4132;SDS011;2080;51.038;7.008;2022-12-20T02:56:15;379.73;;;164.37;;
4132;SDS011;2080;51.038;7.008;2022-12-20T02:58:50;377.40;;;194.03;;
4132;SDS011;2080;51.038;7.008;2022-12-20T03:01:18;407.43;;;208.03;;
4132;SDS011;2080;51.038;7.008;2022-12-20T03:03:45;409.77;;;223.83;;
4132;SDS011;2080;51.038;7.008;2022-12-20T03:06:13;400.53;;;195.30;;
4132;SDS011;2080;51.038;7.008;2022-12-20T03:08:40;404.13;;;209.13;;
4132;SDS011;2080;51.038;7.008;2022-12-20T03:11:10;402.73;;;213.83;;
4132;SDS011;2080;51.038;7.008;2022-12-20T03:13:35;413.53;;;229.67;;
4132;SDS011;2080;51.038;7.008;2022-12-20T03:16:03;392.27;;;225.23;;
4132;SDS011;2080;51.038;7.008;2022-12-20T03:18:31;384.83;;;210.10;;
4132;SDS011;2080;51.038;7.008;2022-12-20T03:20:56;441.27;;;318.07;;
4132;SDS011;2080;51.038;7.008;2022-12-20T03:23:21;400.20;;;215.10;;
4132;SDS011;2080;51.038;7.008;2022-12-20T03:25:50;412.60;;;223.03;;
4132;SDS011;2080;51.038;7.008;2022-12-20T03:28:18;394.27;;;221.03;;
4132;SDS011;2080;51.038;7.008;2022-12-20T03:30:43;395.97;;;193.33;;
4132;SDS011;2080;51.038;7.008;2022-12-20T03:33:11;400.93;;;243.23;;
4132;SDS011;2080;51.038;7.008;2022-12-20T03:35:36;410.87;;;226.57;;
4132;SDS011;2080;51.038;7.008;2022-12-20T03:38:01;407.67;;;259.07;;
4132;SDS011;2080;51.038;7.008;2022-12-20T03:40:27;416.17;;;243.33;;
4132;SDS011;2080;51.038;7.008;2022-12-20T03:42:52;421.17;;;254.83;;
4132;SDS011;2080;51.038;7.008;2022-12-20T03:45:17;416.60;;;249.87;;
4132;SDS011;2080;51.038;7.008;2022-12-20T03:47:44;413.03;;;257.90;;
4132;SDS011;2080;51.038;7.008;2022-12-20T03:50:10;418.67;;;261.20;;
4132;SDS011;2080;51.038;7.008;2022-12-20T03:52:36;403.53;;;256.60;;
4132;SDS011;2080;51.038;7.008;2022-12-20T03:55:01;414.60;;;264.87;;
4132;SDS011;2080;51.038;7.008;2022-12-20T03:57:31;422.20;;;247.30;;
4132;SDS011;2080;51.038;7.008;2022-12-20T03:59:56;413.10;;;235.77;;
4132;SDS011;2080;51.038;7.008;2022-12-20T04:02:21;403.93;;;219.30;;
4132;SDS011;2080;51.038;7.008;2022-12-20T04:04:47;414.17;;;258.00;;
4132;SDS011;2080;51.038;7.008;2022-12-20T04:07:12;406.17;;;261.83;;
4132;SDS011;2080;51.038;7.008;2022-12-20T04:09:39;421.63;;;293.57;;
4132;SDS011;2080;51.038;7.008;2022-12-20T04:12:05;417.07;;;266.00;;
4132;SDS011;2080;51.038;7.008;2022-12-20T04:14:30;412.20;;;267.23;;
4132;SDS011;2080;51.038;7.008;2022-12-20T04:16:55;436.00;;;281.77;;
4132;SDS011;2080;51.038;7.008;2022-12-20T04:19:20;435.60;;;261.80;;
4132;SDS011;2080;51.038;7.008;2022-12-20T04:21:46;425.37;;;260.60;;
4132;SDS011;2080;51.038;7.008;2022-12-20T04:24:11;437.23;;;266.03;;
4132;SDS011;2080;51.038;7.008;2022-12-20T04:26:36;443.77;;;276.70;;
4132;SDS011;2080;51.038;7.008;2022-12-20T04:29:02;433.63;;;278.30;;
4132;SDS011;2080;51.038;7.008;2022-12-20T04:31:27;423.67;;;302.53;;
4132;SDS011;2080;51.038;7.008;2022-12-20T04:33:52;428.47;;;298.60;;
4132;SDS011;2080;51.038;7.008;2022-12-20T04:36:18;435.80;;;288.70;;
4132;SDS011;2080;51.038;7.008;2022-12-20T04:38:45;444.03;;;296.83;;
4132;SDS011;2080;51.038;7.008;2022-12-20T04:41:10;462.27;;;310.43;;
4132;SDS011;2080;51.038;7.008;2022-12-20T04:43:46;439.97;;;281.03;;
4132;SDS011;2080;51.038;7.008;2022-12-20T04:46:11;455.10;;;296.70;;
4132;SDS011;2080;51.038;7.008;2022-12-20T04:48:36;444.03;;;297.17;;
4132;SDS011;2080;51.038;7.008;2022-12-20T04:51:04;443.40;;;294.07;;
4132;SDS011;2080;51.038;7.008;2022-12-20T04:53:32;447.53;;;312.17;;
4132;SDS011;2080;51.038;7.008;2022-12-20T04:56:16;477.87;;;394.50;;
4132;SDS011;2080;51.038;7.008;2022-12-20T04:58:45;459.13;;;345.03;;
4132;SDS011;2080;51.038;7.008;2022-12-20T05:01:11;442.27;;;283.60;;
4132;SDS011;2080;51.038;7.008;2022-12-20T05:03:36;467.47;;;334.17;;
4132;SDS011;2080;51.038;7.008;2022-12-20T05:06:02;444.77;;;294.53;;
4132;SDS011;2080;51.038;7.008;2022-12-20T05:08:28;441.97;;;303.33;;
4132;SDS011;2080;51.038;7.008;2022-12-20T05:10:53;459.33;;;339.67;;
4132;SDS011;2080;51.038;7.008;2022-12-20T05:13:18;431.13;;;283.77;;
4132;SDS011;2080;51.038;7.008;2022-12-20T05:15:48;452.77;;;326.03;;
4132;SDS011;2080;51.038;7.008;2022-12-20T05:18:14;458.03;;;309.30;;
4132;SDS011;2080;51.038;7.008;2022-12-20T05:20:39;537.83;;;423.67;;
4132;SDS011;2080;51.038;7.008;2022-12-20T05:23:08;462.37;;;354.13;;
4132;SDS011;2080;51.038;7.008;2022-12-20T05:25:52;436.07;;;286.23;;
4132;SDS011;2080;51.038;7.008;2022-12-20T05:28:36;435.43;;;335.07;;
4132;SDS011;2080;51.038;7.008;2022-12-20T05:31:01;436.83;;;335.57;;
4132;SDS011;2080;51.038;7.008;2022-12-20T05:33:27;447.93;;;314.77;;
4132;SDS011;2080;51.038;7.008;2022-12-20T05:35:52;466.20;;;358.07;;
4132;SDS011;2080;51.038;7.008;2022-12-20T05:38:18;463.03;;;343.00;;
4132;SDS011;2080;51.038;7.008;2022-12-20T05:40:45;445.43;;;335.53;;
4132;SDS011;2080;51.038;7.008;2022-12-20T05:43:11;443.77;;;363.37;;
4132;SDS011;2080;51.038;7.008;2022-12-20T05:45:39;466.83;;;344.70;;
4132;SDS011;2080;51.038;7.008;2022-12-20T05:48:04;449.23;;;322.13;;
4132;SDS011;2080;51.038;7.008;2022-12-20T05:50:29;448.03;;;356.47;;
4132;SDS011;2080;51.038;7.008;2022-12-20T05:52:56;443.27;;;341.47;;
4132;SDS011;2080;51.038;7.008;2022-12-20T05:55:22;424.33;;;318.77;;
4132;SDS011;2080;51.038;7.008;2022-12-20T05:57:47;448.60;;;313.40;;
4132;SDS011;2080;51.038;7.008;2022-12-20T06:00:12;447.73;;;335.37;;
4132;SDS011;2080;51.038;7.008;2022-12-20T06:02:44;451.90;;;319.53;;
4132;SDS011;2080;51.038;7.008;2022-12-20T06:05:14;427.13;;;267.23;;
4132;SDS011;2080;51.038;7.008;2022-12-20T06:07:42;435.20;;;296.77;;
4132;SDS011;2080;51.038;7.008;2022-12-20T06:10:08;441.70;;;302.03;;
4132;SDS011;2080;51.038;7.008;2022-12-20T06:12:36;446.80;;;320.77;;
4132;SDS011;2080;51.038;7.008;2022-12-20T06:15:01;435.63;;;357.27;;
4132;SDS011;2080;51.038;7.008;2022-12-20T06:17:28;437.50;;;285.77;;
4132;SDS011;2080;51.038;7.008;2022-12-20T06:19:54;452.70;;;315.83;;
4132;SDS011;2080;51.038;7.008;2022-12-20T06:22:19;422.53;;;233.77;;
4132;SDS011;2080;51.038;7.008;2022-12-20T06:24:44;432.10;;;281.53;;
4132;SDS011;2080;51.038;7.008;2022-12-20T06:27:09;410.40;;;238.97;;
4132;SDS011;2080;51.038;7.008;2022-12-20T06:29:35;416.43;;;287.97;;
4132;SDS011;2080;51.038;7.008;2022-12-20T06:32:05;429.27;;;278.60;;
4132;SDS011;2080;51.038;7.008;2022-12-20T06:34:33;436.20;;;274.53;;
4132;SDS011;2080;51.038;7.008;2022-12-20T06:36:58;437.80;;;289.27;;
4132;SDS011;2080;51.038;7.008;2022-12-20T06:39:23;426.40;;;324.13;;
4132;SDS011;2080;51.038;7.008;2022-12-20T06:41:51;424.03;;;266.87;;
4132;SDS011;2080;51.038;7.008;2022-12-20T06:44:18;405.77;;;258.73;;
4132;SDS011;2080;51.038;7.008;2022-12-20T06:46:44;416.87;;;255.57;;
4132;SDS011;2080;51.038;7.008;2022-12-20T06:49:09;423.33;;;256.30;;
4132;SDS011;2080;51.038;7.008;2022-12-20T06:51:36;429.97;;;270.23;;
4132;SDS011;2080;51.038;7.008;2022-12-20T06:54:02;434.13;;;273.40;;
4132;SDS011;2080;51.038;7.008;2022-12-20T06:56:29;415.93;;;284.13;;
4132;SDS011;2080;51.038;7.008;2022-12-20T06:58:57;430.20;;;276.20;;
4132;SDS011;2080;51.038;7.008;2022-12-20T07:01:24;436.43;;;294.57;;
4132;SDS011;2080;51.038;7.008;2022-12-20T07:03:50;429.10;;;265.27;;
4132;SDS011;2080;51.038;7.008;2022-12-20T07:06:17;422.97;;;262.00;;
4132;SDS011;2080;51.038;7.008;2022-12-20T07:08:42;424.53;;;250.97;;
4132;SDS011;2080;51.038;7.008;2022-12-20T07:11:10;443.03;;;259.23;;
4132;SDS011;2080;51.038;7.008;2022-12-20T07:13:35;441.07;;;303.77;;
4132;SDS011;2080;51.038;7.008;2022-12-20T07:16:01;436.90;;;290.73;;
4132;SDS011;2080;51.038;7.008;2022-12-20T07:18:27;434.87;;;297.77;;
4132;SDS011;2080;51.038;7.008;2022-12-20T07:20:58;442.33;;;317.03;;
4132;SDS011;2080;51.038;7.008;2022-12-20T07:23:23;425.60;;;276.77;;
4132;SDS011;2080;51.038;7.008;2022-12-20T07:25:54;401.70;;;205.53;;
4132;SDS011;2080;51.038;7.008;2022-12-20T07:28:20;410.67;;;232.27;;
4132;SDS011;2080;51.038;7.008;2022-12-20T07:30:45;413.80;;;258.47;;
4132;SDS011;2080;51.038;7.008;2022-12-20T07:33:11;403.67;;;232.70;;
4132;SDS011;2080;51.038;7.008;2022-12-20T07:35:38;396.63;;;219.30;;
4132;SDS011;2080;51.038;7.008;2022-12-20T07:38:04;406.30;;;217.83;;
4132;SDS011;2080;51.038;7.008;2022-12-20T07:40:29;422.47;;;269.67;;
4132;SDS011;2080;51.038;7.008;2022-12-20T07:42:57;411.13;;;235.27;;
4132;SDS011;2080;51.038;7.008;2022-12-20T07:45:23;417.57;;;252.77;;
4132;SDS011;2080;51.038;7.008;2022-12-20T07:47:50;434.97;;;285.53;;
4132;SDS011;2080;51.038;7.008;2022-12-20T07:50:15;414.80;;;240.20;;
4132;SDS011;2080;51.038;7.008;2022-12-20T07:52:43;423.30;;;232.37;;
4132;SDS011;2080;51.038;7.008;2022-12-20T07:55:10;420.07;;;253.87;;
4132;SDS011;2080;51.038;7.008;2022-12-20T07:57:40;428.20;;;260.40;;
4132;SDS011;2080;51.038;7.008;2022-12-20T08:00:09;432.57;;;274.37;;
4132;SDS011;2080;51.038;7.008;2022-12-20T08:02:36;433.53;;;226.47;;
4132;SDS011;2080;51.038;7.008;2022-12-20T08:05:02;461.53;;;242.13;;
4132;SDS011;2080;51.038;7.008;2022-12-20T08:07:29;391.23;;;221.97;;
4132;SDS011;2080;51.038;7.008;2022-12-20T08:09:55;427.37;;;260.20;;
4132;SDS011;2080;51.038;7.008;2022-12-20T08:12:23;421.47;;;259.93;;
4132;SDS011;2080;51.038;7.008;2022-12-20T08:14:49;421.60;;;255.33;;
4132;SDS011;2080;51.038;7.008;2022-12-20T08:17:19;410.83;;;234.67;;
4132;SDS011;2080;51.038;7.008;2022-12-20T08:19:47;418.40;;;245.87;;
4132;SDS011;2080;51.038;7.008;2022-12-20T08:22:15;429.07;;;277.40;;
4132;SDS011;2080;51.038;7.008;2022-12-20T08:24:40;458.77;;;353.37;;
4132;SDS011;2080;51.038;7.008;2022-12-20T08:27:10;398.50;;;204.67;;
4132;SDS011;2080;51.038;7.008;2022-12-20T08:29:35;396.77;;;199.40;;
4132;SDS011;2080;51.038;7.008;2022-12-20T08:32:03;398.63;;;197.40;;
4132;SDS011;2080;51.038;7.008;2022-12-20T08:34:28;401.07;;;209.50;;
4132;SDS011;2080;51.038;7.008;2022-12-20T08:36:54;414.47;;;230.83;;
4132;SDS011;2080;51.038;7.008;2022-12-20T08:39:19;402.77;;;218.27;;
4132;SDS011;2080;51.038;7.008;2022-12-20T08:41:44;406.13;;;219.67;;
4132;SDS011;2080;51.038;7.008;2022-12-20T08:44:10;404.97;;;229.40;;
4132;SDS011;2080;51.038;7.008;2022-12-20T08:46:35;390.60;;;185.43;;
4132;SDS011;2080;51.038;7.008;2022-12-20T08:49:01;396.13;;;193.80;;
4132;SDS011;2080;51.038;7.008;2022-12-20T08:51:29;388.17;;;178.27;;
4132;SDS011;2080;51.038;7.008;2022-12-20T08:53:54;378.77;;;166.53;;
4132;SDS011;2080;51.038;7.008;2022-12-20T08:56:19;408.57;;;202.00;;
4132;SDS011;2080;51.038;7.008;2022-12-20T08:58:45;406.77;;;226.13;;
4132;SDS011;2080;51.038;7.008;2022-12-20T09:01:12;394.43;;;183.77;;
4132;SDS011;2080;51.038;7.008;2022-12-20T09:03:37;374.83;;;167.80;;
4132;SDS011;2080;51.038;7.008;2022-12-20T09:06:08;371.77;;;159.53;;
4132;SDS011;2080;51.038;7.008;2022-12-20T09:08:37;378.13;;;162.63;;
4132;SDS011;2080;51.038;7.008;2022-12-20T09:11:05;393.90;;;186.87;;
4132;SDS011;2080;51.038;7.008;2022-12-20T09:13:31;394.13;;;179.97;;
4132;SDS011;2080;51.038;7.008;2022-12-20T09:15:58;409.57;;;172.83;;
4132;SDS011;2080;51.038;7.008;2022-12-20T09:18:24;383.23;;;159.50;;
4132;SDS011;2080;51.038;7.008;2022-12-20T09:20:49;396.83;;;193.03;;
4132;SDS011;2080;51.038;7.008;2022-12-20T09:23:14;404.07;;;215.63;;
4132;SDS011;2080;51.038;7.008;2022-12-20T09:25:39;391.33;;;162.83;;
4132;SDS011;2080;51.038;7.008;2022-12-20T09:28:05;388.13;;;180.17;;
4132;SDS011;2080;51.038;7.008;2022-12-20T09:30:30;403.50;;;230.30;;
4132;SDS011;2080;51.038;7.008;2022-12-20T09:32:55;405.73;;;187.90;;
4132;SDS011;2080;51.038;7.008;2022-12-20T09:35:21;396.77;;;209.67;;
4132;SDS011;2080;51.038;7.008;2022-12-20T09:37:49;399.37;;;211.30;;
4132;SDS011;2080;51.038;7.008;2022-12-20T09:40:20;407.47;;;232.80;;
4132;SDS011;2080;51.038;7.008;2022-12-20T09:42:48;404.77;;;234.00;;
4132;SDS011;2080;51.038;7.008;2022-12-20T09:45:23;415.87;;;219.23;;
4132;SDS011;2080;51.038;7.008;2022-12-20T09:47:50;414.13;;;216.50;;
4132;SDS011;2080;51.038;7.008;2022-12-20T09:50:16;416.10;;;246.20;;
4132;SDS011;2080;51.038;7.008;2022-12-20T09:52:46;419.10;;;242.10;;
4132;SDS011;2080;51.038;7.008;2022-12-20T10:00:21;365.60;;;169.63;;
4132;SDS011;2080;51.038;7.008;2022-12-20T10:02:46;433.77;;;224.10;;
4132;SDS011;2080;51.038;7.008;2022-12-20T10:05:15;400.90;;;184.03;;
4132;SDS011;2080;51.038;7.008;2022-12-20T10:07:46;399.10;;;200.07;;
4132;SDS011;2080;51.038;7.008;2022-12-20T10:15:45;391.80;;;176.30;;
4132;SDS011;2080;51.038;7.008;2022-12-20T10:20:56;385.73;;;171.63;;
4132;SDS011;2080;51.038;7.008;2022-12-20T10:26:07;382.13;;;168.40;;
4132;SDS011;2080;51.038;7.008;2022-12-20T10:28:36;398.70;;;190.33;;
4132;SDS011;2080;51.038;7.008;2022-12-20T10:31:02;404.00;;;203.00;;
4132;SDS011;2080;51.038;7.008;2022-12-20T10:33:29;391.47;;;209.57;;
4132;SDS011;2080;51.038;7.008;2022-12-20T10:35:55;408.43;;;196.07;;
4132;SDS011;2080;51.038;7.008;2022-12-20T10:38:44;412.47;;;221.43;;
4132;SDS011;2080;51.038;7.008;2022-12-20T10:41:15;386.10;;;206.93;;
4132;SDS011;2080;51.038;7.008;2022-12-20T10:43:48;398.97;;;200.43;;
4132;SDS011;2080;51.038;7.008;2022-12-20T10:46:16;417.30;;;223.53;;
4132;SDS011;2080;51.038;7.008;2022-12-20T10:48:43;399.07;;;221.40;;
4132;SDS011;2080;51.038;7.008;2022-12-20T10:53:35;398.67;;;193.67;;
4132;SDS011;2080;51.038;7.008;2022-12-20T10:56:10;410.93;;;220.13;;
4132;SDS011;2080;51.038;7.008;2022-12-20T10:58:36;369.83;;;164.97;;
4132;SDS011;2080;51.038;7.008;2022-12-20T11:01:21;382.10;;;187.50;;
4132;SDS011;2080;51.038;7.008;2022-12-20T11:04:06;393.83;;;183.30;;
4132;SDS011;2080;51.038;7.008;2022-12-20T11:11:59;389.40;;;159.70;;
4132;SDS011;2080;51.038;7.008;2022-12-20T11:14:25;385.70;;;152.00;;
4132;SDS011;2080;51.038;7.008;2022-12-20T11:16:51;373.07;;;129.57;;
4132;SDS011;2080;51.038;7.008;2022-12-20T11:22:02;389.77;;;149.37;;
4132;SDS011;2080;51.038;7.008;2022-12-20T11:24:43;369.33;;;131.90;;
4132;SDS011;2080;51.038;7.008;2022-12-20T11:35:16;377.07;;;176.10;;
4132;SDS011;2080;51.038;7.008;2022-12-20T11:40:25;380.03;;;186.90;;
4132;SDS011;2080;51.038;7.008;2022-12-20T11:45:30;406.43;;;206.60;;
4132;SDS011;2080;51.038;7.008;2022-12-20T11:50:48;369.23;;;135.30;;
4132;SDS011;2080;51.038;7.008;2022-12-20T11:53:26;370.87;;;121.07;;
4132;SDS011;2080;51.038;7.008;2022-12-20T11:55:58;402.27;;;224.80;;
4132;SDS011;2080;51.038;7.008;2022-12-20T11:58:43;393.53;;;180.87;;
4132;SDS011;2080;51.038;7.008;2022-12-20T12:01:12;409.17;;;213.13;;
4132;SDS011;2080;51.038;7.008;2022-12-20T12:03:45;392.53;;;170.47;;
4132;SDS011;2080;51.038;7.008;2022-12-20T12:06:21;395.90;;;190.50;;
4132;SDS011;2080;51.038;7.008;2022-12-20T12:08:52;403.03;;;192.67;;
4132;SDS011;2080;51.038;7.008;2022-12-20T12:13:44;376.57;;;147.17;;
4132;SDS011;2080;51.038;7.008;2022-12-20T12:16:15;401.03;;;172.00;;
4132;SDS011;2080;51.038;7.008;2022-12-20T12:18:40;403.43;;;190.17;;
4132;SDS011;2080;51.038;7.008;2022-12-20T12:26:01;385.60;;;212.67;;
4132;SDS011;2080;51.038;7.008;2022-12-20T12:28:30;398.97;;;235.90;;
4132;SDS011;2080;51.038;7.008;2022-12-20T12:30:56;396.07;;;191.40;;
4132;SDS011;2080;51.038;7.008;2022-12-20T12:33:29;377.30;;;133.70;;
4132;SDS011;2080;51.038;7.008;2022-12-20T12:41:29;366.70;;;123.60;;
4132;SDS011;2080;51.038;7.008;2022-12-20T12:46:42;410.67;;;214.90;;
4132;SDS011;2080;51.038;7.008;2022-12-20T12:49:11;415.90;;;238.83;;
4132;SDS011;2080;51.038;7.008;2022-12-20T12:51:42;428.40;;;233.43;;
4132;SDS011;2080;51.038;7.008;2022-12-20T12:56:43;414.10;;;226.73;;
4132;SDS011;2080;51.038;7.008;2022-12-20T12:59:18;444.03;;;277.73;;
4132;SDS011;2080;51.038;7.008;2022-12-20T13:11:55;444.90;;;308.73;;
4132;SDS011;2080;51.038;7.008;2022-12-20T13:21:55;466.50;;;356.67;;
4132;SDS011;2080;51.038;7.008;2022-12-20T13:26:52;444.57;;;273.43;;
4132;SDS011;2080;51.038;7.008;2022-12-20T13:29:27;469.90;;;349.70;;
4132;SDS011;2080;51.038;7.008;2022-12-20T13:31:59;456.03;;;345.17;;
4132;SDS011;2080;51.038;7.008;2022-12-20T13:37:26;454.10;;;334.57;;
4132;SDS011;2080;51.038;7.008;2022-12-20T13:39:51;457.27;;;334.83;;
4132;SDS011;2080;51.038;7.008;2022-12-20T13:42:31;469.17;;;351.00;;
4132;SDS011;2080;51.038;7.008;2022-12-20T13:45:00;464.90;;;347.30;;
4132;SDS011;2080;51.038;7.008;2022-12-20T13:47:36;445.70;;;317.07;;
4132;SDS011;2080;51.038;7.008;2022-12-20T13:53:06;423.57;;;262.37;;
4132;SDS011;2080;51.038;7.008;2022-12-20T13:55:42;410.90;;;248.07;;
4132;SDS011;2080;51.038;7.008;2022-12-20T13:58:15;457.30;;;316.37;;
4132;SDS011;2080;51.038;7.008;2022-12-20T14:00:43;420.27;;;247.93;;
4132;SDS011;2080;51.038;7.008;2022-12-20T14:03:13;392.83;;;224.63;;
4132;SDS011;2080;51.038;7.008;2022-12-20T14:05:44;437.43;;;288.63;;
4132;SDS011;2080;51.038;7.008;2022-12-20T14:08:13;430.30;;;272.10;;
4132;SDS011;2080;51.038;7.008;2022-12-20T14:10:39;423.63;;;274.27;;
4132;SDS011;2080;51.038;7.008;2022-12-20T14:13:26;409.97;;;248.30;;
4132;SDS011;2080;51.038;7.008;2022-12-20T14:15:54;405.13;;;233.53;;
4132;SDS011;2080;51.038;7.008;2022-12-20T14:18:25;381.47;;;193.10;;
4132;SDS011;2080;51.038;7.008;2022-12-20T14:20:51;409.70;;;232.23;;
4132;SDS011;2080;51.038;7.008;2022-12-20T14:23:21;406.07;;;232.07;;
4132;SDS011;2080;51.038;7.008;2022-12-20T14:30:41;444.20;;;272.93;;
4132;SDS011;2080;51.038;7.008;2022-12-20T14:35:52;412.13;;;256.73;;
4132;SDS011;2080;51.038;7.008;2022-12-20T14:38:21;426.17;;;278.43;;
4132;SDS011;2080;51.038;7.008;2022-12-20T14:40:47;450.37;;;277.63;;
4132;SDS011;2080;51.038;7.008;2022-12-20T14:43:20;470.00;;;361.67;;
4132;SDS011;2080;51.038;7.008;2022-12-20T14:45:47;433.90;;;282.60;;
4132;SDS011;2080;51.038;7.008;2022-12-20T14:48:14;437.60;;;299.33;;
4132;SDS011;2080;51.038;7.008;2022-12-20T14:50:40;447.73;;;278.90;;
4132;SDS011;2080;51.038;7.008;2022-12-20T14:53:16;406.80;;;230.97;;
4132;SDS011;2080;51.038;7.008;2022-12-20T14:55:44;440.27;;;308.67;;
4132;SDS011;2080;51.038;7.008;2022-12-20T15:00:58;404.93;;;214.23;;
4132;SDS011;2080;51.038;7.008;2022-12-20T15:03:26;415.13;;;258.40;;
4132;SDS011;2080;51.038;7.008;2022-12-20T15:08:25;435.17;;;287.97;;
4132;SDS011;2080;51.038;7.008;2022-12-20T15:10:55;427.03;;;259.83;;
4132;SDS011;2080;51.038;7.008;2022-12-20T15:13:23;451.03;;;317.30;;
4132;SDS011;2080;51.038;7.008;2022-12-20T15:15:49;431.43;;;294.57;;
4132;SDS011;2080;51.038;7.008;2022-12-20T15:18:15;414.00;;;221.47;;
4132;SDS011;2080;51.038;7.008;2022-12-20T15:20:41;449.40;;;286.33;;
4132;SDS011;2080;51.038;7.008;2022-12-20T15:23:16;448.27;;;295.73;;
4132;SDS011;2080;51.038;7.008;2022-12-20T15:25:43;448.67;;;305.10;;
4132;SDS011;2080;51.038;7.008;2022-12-20T15:28:20;457.07;;;315.53;;
4132;SDS011;2080;51.038;7.008;2022-12-20T15:30:46;443.63;;;285.27;;
4132;SDS011;2080;51.038;7.008;2022-12-20T15:33:22;445.40;;;312.30;;
4132;SDS011;2080;51.038;7.008;2022-12-20T15:35:47;433.43;;;259.30;;
4132;SDS011;2080;51.038;7.008;2022-12-20T15:38:17;443.53;;;311.03;;
4132;SDS011;2080;51.038;7.008;2022-12-20T15:40:43;449.50;;;305.70;;
4132;SDS011;2080;51.038;7.008;2022-12-20T15:43:12;403.47;;;246.67;;
4132;SDS011;2080;51.038;7.008;2022-12-20T15:45:38;434.87;;;290.90;;
4132;SDS011;2080;51.038;7.008;2022-12-20T15:48:04;438.57;;;294.53;;
4132;SDS011;2080;51.038;7.008;2022-12-20T15:50:31;416.87;;;248.40;;
4132;SDS011;2080;51.038;7.008;2022-12-20T15:52:57;403.73;;;236.27;;
4132;SDS011;2080;51.038;7.008;2022-12-20T15:55:22;437.23;;;286.07;;
4132;SDS011;2080;51.038;7.008;2022-12-20T15:57:47;443.00;;;301.87;;
4132;SDS011;2080;51.038;7.008;2022-12-20T16:00:12;439.03;;;310.17;;
4132;SDS011;2080;51.038;7.008;2022-12-20T16:02:38;431.10;;;292.43;;
4132;SDS011;2080;51.038;7.008;2022-12-20T16:05:07;445.03;;;308.73;;
4132;SDS011;2080;51.038;7.008;2022-12-20T16:07:35;426.10;;;280.13;;
4132;SDS011;2080;51.038;7.008;2022-12-20T16:10:01;408.73;;;256.90;;
4132;SDS011;2080;51.038;7.008;2022-12-20T16:12:29;447.60;;;308.47;;
4132;SDS011;2080;51.038;7.008;2022-12-20T16:14:56;402.77;;;203.30;;
4132;SDS011;2080;51.038;7.008;2022-12-20T16:17:23;438.37;;;267.27;;